Portada
METAR-TAF:

METAR-TAF

Aeroports :

Nanning, Xina

latitud: 22-49N, longitud: 108-21E, altitud: 73 m

Observació

L'informe es va fer fa 52 minuts, a les 04:00 UTC
Vent 6 kt del Est/Nord-Est, variant entre Nord/Nord-Est i Est
Temperatura 21°C
Humitat 56%
Pressió 1021 hPa
Visibilitat 10 km o més
sense núvols per sota de 1500 mi sense presència de cumulonimbus.

METAR: ZGNN 210400Z 06003MPS 020V100 CAVOK 21/12 Q1021 NOSIG

Hora: 12:52 (04:52 UTC)

Pronòstic

L'informe es va fer fa 9 hores i 44 minuts, a les 19:08 UTC
Pronòstic vàlid del 21 a les 00 UTC al 21 a les 24 UTC
Vent 6 kt del Nord-Est
Visibilitat: 5000 m
Núvols disperses a una alçada de 4000 ft
boirina

TAF: ZGNN 201908Z 2100/2124 04003MPS 5000 BR SCT040 TX26/2107Z TN14/2122Z

Observacions i pronòstics meteorològics de més de 4000 aeroports (METAR i TAF).

Les estacions disponibles són els punts grocs i vermells al mapa.

Posi el ratolí al punt desitjat per veure el nom de l'estació.

Feu clic per veure les observacions i els pronòstics meteorològics.

Per canviar el mapa: feu clic els botons verds amb una creu de color negre per apropar; al botó verd amb un guió per allunyar la imatge; o en les fletxes verdes per a mapes adjacents.


METAR-TAF: